Estreito, Brazil
Current Conditions -  °F | °C
As of 2:00 PM on Tuesday 27 Jan 2015 (Local Time) from SBIZ Reporting Station
Broken Clouds Broken Clouds  
Wind Chill: 93°   Ceiling: 2300
Heat Index: 97°   Visibility: 6mi
Dew Point: 68°   Wind: 7mph
Humidity: 44%   Direction: 80°E
Pressure: 29.85"   Gusts: NA
Location:  6.56°S, 47.45°W
Report Text: SBIZ 271700Z 08006KT 9999 BKN023 34/20 Q1011
Loading
Personal Weather Stations






























Interactive Weather Map New forecast layout! Learn more

10-Day Weather Forecast

Advertisements
Track Severe Weather on mobile